Time;durP1;ratioP1;P1;durP2;ratioP2;P2;SDS_P1;SDS_P2;PMS_P1;PMS_P2;Temp;Humidity;BMP_temperature;BMP_pressure;BME280_temperature;BME280_humidity;BME280_pressure;Samples;Min_cycle;Max_cycle;Signal;HPM_P1;HPM_P2
2024/01/31 00:01:37;;;;;;;5.50;3.60;;;13.40;92.80;;;;;;5015542;28;20357;-44
2024/01/31 00:04:06;;;;;;;5.28;3.78;;;13.30;92.90;;;;;;5014612;28;20030;-44
2024/01/31 00:06:32;;;;;;;4.75;3.25;;;13.20;93.00;;;;;;5013874;28;20096;-43
2024/01/31 00:08:57;;;;;;;4.82;3.35;;;13.20;93.10;;;;;;5014853;28;20026;-45
2024/01/31 00:11:28;;;;;;;5.35;3.28;;;13.10;93.20;;;;;;5015088;28;20026;-43
2024/01/31 00:13:54;;;;;;;4.50;3.45;;;13.00;93.30;;;;;;5014941;28;20080;-43
2024/01/31 00:16:20;;;;;;;6.03;4.00;;;12.90;93.40;;;;;;5013729;28;20383;-44
2024/01/31 00:18:46;;;;;;;5.40;3.60;;;12.90;93.50;;;;;;5013589;28;20480;-44
2024/01/31 00:21:11;;;;;;;4.75;3.45;;;12.80;93.60;;;;;;5014115;28;20034;-44
2024/01/31 00:23:37;;;;;;;6.35;4.00;;;12.70;93.70;;;;;;5014360;28;20096;-44
2024/01/31 00:26:03;;;;;;;4.35;3.25;;;12.70;93.90;;;;;;5013614;28;20594;-44
2024/01/31 00:28:28;;;;;;;5.13;3.03;;;12.60;93.90;;;;;;5014250;28;20483;-43
2024/01/31 00:30:54;;;;;;;6.35;3.65;;;12.60;94.00;;;;;;5013214;28;20022;-44
2024/01/31 00:33:19;;;;;;;6.25;3.88;;;12.50;94.10;;;;;;5014272;28;20026;-44
2024/01/31 00:35:45;;;;;;;5.00;3.42;;;12.50;94.20;;;;;;5014313;28;20168;-45
2024/01/31 00:38:11;;;;;;;5.72;3.58;;;12.40;94.20;;;;;;5014077;28;20373;-43
2024/01/31 00:40:36;;;;;;;5.72;3.58;;;12.40;94.30;;;;;;5014147;28;20054;-45
2024/01/31 00:43:02;;;;;;;5.85;3.65;;;12.30;94.40;;;;;;5014732;28;20483;-43
2024/01/31 00:45:30;;;;;;;5.00;3.50;;;12.30;94.50;;;;;;5013198;28;20411;-42
2024/01/31 00:47:56;;;;;;;7.68;3.63;;;12.20;94.50;;;;;;5013060;28;20088;-44
2024/01/31 00:50:22;;;;;;;5.22;3.45;;;12.20;94.60;;;;;;5013173;28;20049;-43
2024/01/31 00:52:47;;;;;;;6.15;3.63;;;12.10;94.70;;;;;;5016174;28;20022;-43
2024/01/31 00:55:14;;;;;;;4.78;3.60;;;12.10;94.80;;;;;;5013254;28;20034;-44
2024/01/31 00:57:40;;;;;;;5.60;3.65;;;12.00;94.80;;;;;;5012926;28;20030;-43
2024/01/31 01:00:08;;;;;;;6.05;4.13;;;12.00;94.90;;;;;;5012911;28;20104;-44
2024/01/31 01:02:40;;;;;;;4.93;3.47;;;12.00;95.00;;;;;;5013369;28;20030;-43
2024/01/31 01:05:07;;;;;;;5.07;3.58;;;11.90;95.00;;;;;;5013898;28;20068;-45
2024/01/31 01:07:32;;;;;;;5.43;3.42;;;11.80;95.10;;;;;;5013865;28;20099;-43
2024/01/31 01:09:58;;;;;;;5.70;3.50;;;11.90;95.20;;;;;;5013535;28;20034;-45
2024/01/31 01:12:23;;;;;;;5.25;3.38;;;11.80;95.30;;;;;;5014357;28;20029;-43
2024/01/31 01:14:49;;;;;;;6.05;3.42;;;11.70;95.30;;;;;;5013392;28;20026;-44
2024/01/31 01:17:15;;;;;;;5.38;3.95;;;11.70;95.40;;;;;;5012959;28;20037;-44
2024/01/31 01:19:40;;;;;;;4.38;3.20;;;11.70;95.50;;;;;;5013506;28;20121;-43
2024/01/31 01:22:06;;;;;;;6.38;3.72;;;11.60;95.50;;;;;;5013794;28;20022;-46
2024/01/31 01:24:32;;;;;;;4.80;3.72;;;11.60;95.60;;;;;;5013066;28;20112;-44
2024/01/31 01:26:57;;;;;;;5.10;3.45;;;11.60;95.60;;;;;;5013262;28;20021;-43
2024/01/31 01:29:23;;;;;;;5.65;3.60;;;11.60;95.70;;;;;;5013106;28;20026;-45
2024/01/31 01:31:49;;;;;;;4.40;3.30;;;11.50;95.80;;;;;;5012798;28;20042;-45
2024/01/31 01:34:14;;;;;;;5.00;3.50;;;11.50;95.80;;;;;;5012262;28;20116;-45
2024/01/31 01:36:40;;;;;;;4.82;3.35;;;11.50;95.90;;;;;;5012236;28;20065;-46
2024/01/31 01:39:05;;;;;;;5.75;3.67;;;11.40;95.90;;;;;;5013302;28;20034;-45
2024/01/31 01:41:31;;;;;;;4.00;3.00;;;11.40;96.00;;;;;;5012187;28;20480;-45
2024/01/31 01:43:57;;;;;;;5.38;3.17;;;11.40;96.00;;;;;;5012824;28;20052;-43
2024/01/31 01:46:23;;;;;;;4.55;3.28;;;11.40;96.10;;;;;;5011988;28;20036;-45
2024/01/31 01:48:50;;;;;;;3.67;2.70;;;11.30;96.10;;;;;;5012514;28;20029;-43
2024/01/31 01:51:17;;;;;;;4.57;3.00;;;11.30;96.20;;;;;;5012149;28;20026;-43
2024/01/31 01:53:44;;;;;;;4.50;3.13;;;11.20;96.20;;;;;;5013140;28;20468;-45
2024/01/31 01:56:11;;;;;;;5.55;3.45;;;11.20;96.30;;;;;;5012543;28;20021;-45
2024/01/31 01:58:37;;;;;;;4.18;3.17;;;11.20;96.30;;;;;;5012027;28;20030;-45
2024/01/31 02:01:03;;;;;;;4.80;3.40;;;11.20;96.30;;;;;;5012665;28;20026;-44
2024/01/31 02:03:30;;;;;;;4.85;3.70;;;11.20;96.40;;;;;;5013389;28;20026;-45
2024/01/31 02:06:03;;;;;;;5.65;3.42;;;11.10;96.40;;;;;;5011680;28;20285;-44
2024/01/31 02:08:29;;;;;;;4.53;3.30;;;11.10;96.50;;;;;;5012730;28;20026;-45
2024/01/31 02:10:56;;;;;;;4.78;3.30;;;11.10;96.50;;;;;;5011966;28;20037;-46
2024/01/31 02:13:22;;;;;;;4.25;3.00;;;11.10;96.50;;;;;;5012025;28;20033;-44
2024/01/31 02:15:58;;;;;;;5.05;3.58;;;11.10;96.60;;;;;;5011902;28;20109;-44
2024/01/31 02:18:27;;;;;;;4.10;3.20;;;11.00;96.60;;;;;;5011981;28;20041;-46
2024/01/31 02:20:54;;;;;;;4.80;3.08;;;11.00;96.70;;;;;;5011835;28;20061;-45
2024/01/31 02:23:23;;;;;;;4.28;2.92;;;11.00;96.70;;;;;;5011835;28;20029;-44
2024/01/31 02:25:49;;;;;;;4.82;3.20;;;11.00;96.80;;;;;;5011503;28;20037;-45
2024/01/31 02:28:15;;;;;;;4.55;3.05;;;10.90;96.80;;;;;;5012204;28;20048;-45
2024/01/31 02:30:41;;;;;;;5.85;3.40;;;10.90;96.80;;;;;;5012627;28;20009;-45
2024/01/31 02:33:07;;;;;;;4.18;3.10;;;10.90;96.90;;;;;;5011945;28;20029;-45
2024/01/31 02:35:34;;;;;;;5.90;3.38;;;10.90;96.90;;;;;;5011519;28;20034;-44
2024/01/31 02:38:00;;;;;;;5.13;3.15;;;10.90;97.00;;;;;;5012366;28;20002;-46
2024/01/31 02:40:27;;;;;;;4.25;3.08;;;10.90;97.00;;;;;;5012433;28;20393;-44
2024/01/31 02:42:53;;;;;;;4.75;3.22;;;10.90;97.00;;;;;;5011470;28;20026;-44
2024/01/31 02:45:19;;;;;;;5.95;3.33;;;10.80;97.00;;;;;;5012339;28;20030;-44
2024/01/31 02:47:44;;;;;;;7.57;3.30;;;10.80;97.10;;;;;;5011935;28;20037;-45
2024/01/31 02:50:10;;;;;;;4.43;3.08;;;10.80;97.10;;;;;;5012672;28;20053;-45
2024/01/31 02:52:36;;;;;;;5.97;2.97;;;10.80;97.10;;;;;;5012596;28;20209;-46
2024/01/31 02:55:02;;;;;;;9.23;3.40;;;10.80;97.20;;;;;;5015870;28;20497;-45
2024/01/31 02:57:28;;;;;;;4.40;3.10;;;10.80;97.20;;;;;;5016823;28;20361;-45
2024/01/31 02:59:53;;;;;;;4.85;3.20;;;10.70;97.20;;;;;;5015349;28;20080;-44
2024/01/31 03:02:19;;;;;;;3.90;3.00;;;10.70;97.30;;;;;;5016444;28;20088;-45
2024/01/31 03:04:45;;;;;;;4.60;2.80;;;10.70;97.30;;;;;;5016684;28;20030;-46
2024/01/31 03:07:11;;;;;;;4.15;2.90;;;10.70;97.30;;;;;;5015323;28;20406;-46
2024/01/31 03:09:37;;;;;;;3.95;2.92;;;10.70;97.40;;;;;;5016136;28;20082;-44
2024/01/31 03:12:04;;;;;;;3.58;2.90;;;10.70;97.40;;;;;;5015374;28;20061;-46
2024/01/31 03:14:31;;;;;;;4.45;3.05;;;10.70;97.40;;;;;;5014852;28;20018;-45
2024/01/31 03:16:57;;;;;;;5.20;3.20;;;10.70;97.40;;;;;;5015091;28;20501;-45
2024/01/31 03:19:22;;;;;;;3.80;2.70;;;10.60;97.50;;;;;;5014764;28;20025;-45
2024/01/31 03:21:48;;;;;;;4.10;3.03;;;10.60;97.50;;;;;;5015111;28;20034;-45
2024/01/31 03:24:15;;;;;;;3.67;2.55;;;10.60;97.50;;;;;;5014546;28;20041;-45
2024/01/31 03:26:41;;;;;;;4.22;2.83;;;10.60;97.60;;;;;;5015499;28;20029;-45
2024/01/31 03:29:07;;;;;;;4.07;2.72;;;10.60;97.60;;;;;;5015195;28;20030;-44
2024/01/31 03:31:32;;;;;;;5.22;2.67;;;10.60;97.90;;;;;;5014958;28;20034;-44
2024/01/31 03:33:58;;;;;;;3.55;2.65;;;10.60;97.60;;;;;;5015792;28;20018;-44
2024/01/31 03:36:23;;;;;;;4.95;3.22;;;10.60;97.70;;;;;;5015296;28;20025;-46
2024/01/31 03:38:49;;;;;;;5.00;2.80;;;10.50;97.60;;;;;;5014350;28;20379;-45
2024/01/31 03:41:14;;;;;;;4.88;2.80;;;10.50;97.70;;;;;;5015239;28;20076;-46
2024/01/31 03:43:40;;;;;;;4.35;2.80;;;10.50;97.70;;;;;;5015282;28;20608;-44
2024/01/31 03:46:06;;;;;;;4.70;2.97;;;10.50;97.70;;;;;;5015781;28;20026;-46
2024/01/31 03:48:32;;;;;;;3.38;2.67;;;10.50;97.80;;;;;;5014587;28;20049;-44
2024/01/31 03:50:58;;;;;;;4.95;2.90;;;10.50;97.80;;;;;;5015023;28;20496;-44
2024/01/31 03:53:27;;;;;;;4.18;2.67;;;10.50;97.80;;;;;;5015561;28;20057;-44
2024/01/31 03:55:53;;;;;;;3.97;2.55;;;10.50;97.80;;;;;;5015330;28;20036;-45
2024/01/31 03:58:19;;;;;;;5.00;2.80;;;10.50;97.90;;;;;;5014753;28;20092;-45
2024/01/31 04:00:45;;;;;;;3.47;2.72;;;10.50;97.90;;;;;;5014458;28;20049;-44
2024/01/31 04:03:10;;;;;;;4.35;2.60;;;10.40;97.90;;;;;;5014985;28;20022;-45
2024/01/31 04:05:36;;;;;;;3.70;2.65;;;10.50;97.90;;;;;;5014186;28;20496;-44
2024/01/31 04:08:02;;;;;;;4.05;3.00;;;10.40;97.90;;;;;;5014890;28;20112;-45
2024/01/31 04:10:28;;;;;;;3.75;2.75;;;10.50;98.00;;;;;;5014254;28;20104;-41
2024/01/31 04:12:54;;;;;;;3.95;2.70;;;10.40;98.00;;;;;;5014368;28;20538;-46
2024/01/31 04:15:19;;;;;;;6.65;2.97;;;10.40;98.00;;;;;;5014879;28;20030;-44
2024/01/31 04:17:45;;;;;;;4.00;2.60;;;10.40;98.00;;;;;;5014357;28;20022;-44
2024/01/31 04:20:11;;;;;;;4.20;2.70;;;10.40;98.10;;;;;;5013822;28;20030;-44
2024/01/31 04:22:40;;;;;;;4.65;2.78;;;10.40;98.10;;;;;;5013660;28;20040;-45
2024/01/31 04:25:06;;;;;;;3.38;2.20;;;10.40;98.10;;;;;;5014674;28;20381;-44
2024/01/31 04:27:31;;;;;;;3.63;3.00;;;10.30;98.10;;;;;;5013791;28;20102;-45
2024/01/31 04:29:58;;;;;;;3.85;2.80;;;10.40;98.20;;;;;;5013680;28;20361;-45
2024/01/31 04:32:24;;;;;;;3.15;2.45;;;10.40;98.10;;;;;;5014634;28;20026;-44
2024/01/31 04:34:50;;;;;;;3.10;2.38;;;10.30;98.10;;;;;;5014089;28;20555;-45
2024/01/31 04:37:16;;;;;;;3.75;2.55;;;10.30;98.10;;;;;;5013760;28;20492;-43
2024/01/31 04:39:42;;;;;;;3.88;2.80;;;10.30;98.20;;;;;;5013366;28;20033;-45
2024/01/31 04:42:08;;;;;;;4.65;2.80;;;10.30;98.20;;;;;;5013746;28;20032;-44
2024/01/31 04:44:34;;;;;;;5.88;2.80;;;10.30;98.20;;;;;;5013243;28;20022;-43
2024/01/31 04:47:00;;;;;;;3.60;2.58;;;10.30;98.20;;;;;;5013182;28;20029;-44
2024/01/31 04:49:26;;;;;;;3.88;2.40;;;10.30;98.30;;;;;;5013110;28;20097;-45
2024/01/31 04:51:52;;;;;;;4.35;2.83;;;10.30;98.30;;;;;;5013520;28;20089;-45
2024/01/31 04:54:18;;;;;;;4.50;2.60;;;10.30;98.30;;;;;;5014237;28;20022;-45
2024/01/31 04:56:44;;;;;;;3.58;2.55;;;10.30;98.30;;;;;;5014058;28;20044;-46
2024/01/31 04:59:09;;;;;;;3.05;2.40;;;10.30;98.30;;;;;;5012921;28;20567;-43
2024/01/31 05:01:35;;;;;;;5.10;2.53;;;10.30;98.30;;;;;;5013117;28;20048;-44
2024/01/31 05:04:00;;;;;;;3.25;2.55;;;10.30;98.40;;;;;;5012896;28;20030;-45
2024/01/31 05:06:26;;;;;;;2.65;2.30;;;10.30;98.40;;;;;;5012846;28;20022;-45
2024/01/31 05:08:52;;;;;;;4.25;2.58;;;10.30;98.40;;;;;;5012810;28;20114;-45
2024/01/31 05:11:17;;;;;;;3.33;2.38;;;10.30;98.40;;;;;;5012967;28;20033;-45
2024/01/31 05:13:43;;;;;;;4.43;2.40;;;10.30;98.40;;;;;;5013205;28;20392;-44
2024/01/31 05:16:09;;;;;;;3.60;2.67;;;10.20;98.40;;;;;;5012734;28;20033;-46
2024/01/31 05:18:39;;;;;;;2.70;2.17;;;10.20;98.50;;;;;;5012168;28;20018;-46
2024/01/31 05:21:05;;;;;;;4.25;2.60;;;10.20;98.50;;;;;;5012838;28;20507;-44
2024/01/31 05:23:30;;;;;;;3.72;2.67;;;10.20;98.50;;;;;;5012795;28;20030;-43
2024/01/31 05:25:56;;;;;;;3.58;2.53;;;10.20;98.50;;;;;;5012394;28;20040;-46
2024/01/31 05:28:22;;;;;;;4.03;2.58;;;10.20;98.50;;;;;;5012284;28;20025;-45
2024/01/31 05:30:47;;;;;;;4.30;2.53;;;10.20;98.50;;;;;;5012400;28;20053;-45
2024/01/31 05:33:13;;;;;;;3.78;2.63;;;10.20;98.50;;;;;;5012417;28;20062;-44
2024/01/31 05:35:39;;;;;;;3.15;2.28;;;10.20;98.50;;;;;;5012175;28;20121;-45
2024/01/31 05:38:05;;;;;;;3.45;2.30;;;10.20;98.60;;;;;;5013427;28;20023;-46
2024/01/31 05:40:31;;;;;;;4.22;2.80;;;10.20;98.60;;;;;;5013288;28;20037;-44
2024/01/31 05:42:57;;;;;;;3.45;2.40;;;10.20;98.60;;;;;;5012245;28;20034;-45
2024/01/31 05:45:24;;;;;;;3.63;2.22;;;10.10;98.60;;;;;;5012205;28;20064;-44
2024/01/31 05:47:49;;;;;;;3.53;2.50;;;10.20;98.60;;;;;;5012308;28;20042;-45
2024/01/31 05:50:15;;;;;;;3.13;2.50;;;10.10;98.60;;;;;;5012045;28;20399;-43
2024/01/31 05:52:41;;;;;;;3.40;2.80;;;10.20;98.60;;;;;;5012747;28;20109;-44
2024/01/31 05:55:06;;;;;;;3.53;2.40;;;10.10;98.60;;;;;;5012187;28;20026;-46
2024/01/31 05:57:33;;;;;;;4.53;2.88;;;10.20;98.70;;;;;;5012725;28;20476;-44
2024/01/31 05:59:58;;;;;;;3.53;2.50;;;10.20;98.70;;;;;;5012452;28;20018;-44
2024/01/31 06:02:24;;;;;;;3.92;2.50;;;10.10;98.60;;;;;;5012747;28;20025;-44
2024/01/31 06:04:50;;;;;;;3.50;2.35;;;10.10;98.70;;;;;;5012163;28;20112;-46
2024/01/31 06:07:16;;;;;;;3.55;2.33;;;10.10;98.70;;;;;;5011821;28;20101;-46
2024/01/31 06:09:42;;;;;;;3.55;2.20;;;10.10;98.70;;;;;;5012738;28;20503;-45
2024/01/31 06:12:07;;;;;;;3.83;2.60;;;10.10;98.70;;;;;;5012279;28;20136;-45
2024/01/31 06:14:37;;;;;;;3.50;2.40;;;10.10;98.70;;;;;;5012449;28;20026;-44
2024/01/31 06:17:06;;;;;;;4.25;2.65;;;10.10;98.70;;;;;;5012363;28;20022;-46
2024/01/31 06:19:31;;;;;;;4.07;2.80;;;10.10;98.70;;;;;;5011695;28;20022;-46
2024/01/31 06:21:57;;;;;;;3.58;2.55;;;10.10;98.80;;;;;;5011717;28;20022;-45
2024/01/31 06:24:22;;;;;;;4.97;3.15;;;10.10;98.80;;;;;;5012328;28;20042;-44
2024/01/31 06:26:48;;;;;;;7.22;3.63;;;10.10;98.80;;;;;;5012194;28;20026;-45
2024/01/31 06:29:18;;;;;;;6.35;3.80;;;10.10;98.90;;;;;;5011123;28;20034;-43
2024/01/31 06:31:47;;;;;;;6.18;3.63;;;10.10;99.00;;;;;;5012662;28;20040;-45
2024/01/31 06:34:14;;;;;;;4.32;3.22;;;10.10;99.00;;;;;;5012029;28;20057;-45
2024/01/31 06:36:40;;;;;;;6.28;3.58;;;10.10;99.00;;;;;;5012721;28;20068;-43
2024/01/31 06:39:06;;;;;;;6.53;3.97;;;10.10;98.90;;;;;;5012428;28;20297;-45
2024/01/31 06:41:33;;;;;;;7.10;3.63;;;10.10;99.00;;;;;;5011433;28;20392;-45
2024/01/31 06:43:59;;;;;;;5.13;3.60;;;10.10;99.00;;;;;;5011277;28;20030;-44
2024/01/31 06:46:24;;;;;;;4.13;3.25;;;10.10;99.00;;;;;;5011624;28;20033;-45
2024/01/31 06:48:50;;;;;;;6.05;3.72;;;10.10;99.00;;;;;;5012260;28;20058;-45
2024/01/31 06:51:15;;;;;;;5.60;4.05;;;10.10;98.90;;;;;;5011421;28;20057;-41
2024/01/31 06:53:41;;;;;;;6.18;3.42;;;10.00;98.90;;;;;;5011345;28;20030;-44
2024/01/31 06:56:15;;;;;;;5.97;3.95;;;10.10;99.00;;;;;;5011250;28;20026;-44
2024/01/31 06:58:40;;;;;;;7.40;3.72;;;10.00;99.00;;;;;;5011251;28;20033;-42
2024/01/31 07:01:06;;;;;;;4.57;3.28;;;10.10;99.10;;;;;;5011760;28;20176;-45
2024/01/31 07:03:32;;;;;;;4.75;3.47;;;10.10;99.10;;;;;;5012023;28;20030;-45
2024/01/31 07:05:57;;;;;;;4.78;3.58;;;10.10;99.10;;;;;;5011608;28;20108;-45
2024/01/31 07:08:23;;;;;;;5.60;3.85;;;10.10;99.10;;;;;;5011137;28;20069;-45
2024/01/31 07:10:48;;;;;;;5.40;3.28;;;10.10;99.10;;;;;;5011074;28;20113;-44
2024/01/31 07:13:14;;;;;;;5.10;3.38;;;10.10;99.10;;;;;;5011423;28;20072;-43
2024/01/31 07:15:40;;;;;;;5.28;3.25;;;10.10;99.00;;;;;;5012195;28;20029;-45
2024/01/31 07:18:05;;;;;;;4.95;3.42;;;10.10;99.00;;;;;;5011996;28;20018;-44
2024/01/31 07:20:31;;;;;;;5.20;3.65;;;10.10;99.00;;;;;;5012525;28;20026;-45
2024/01/31 07:22:57;;;;;;;4.93;3.30;;;10.10;98.90;;;;;;5011251;28;20037;-45
2024/01/31 07:25:22;;;;;;;4.38;3.08;;;10.10;99.00;;;;;;5011477;28;20033;-45
2024/01/31 07:27:48;;;;;;;4.05;3.05;;;10.10;99.00;;;;;;5011762;28;20447;-45
2024/01/31 07:30:14;;;;;;;7.30;3.60;;;10.20;99.00;;;;;;5011597;28;20472;-43
2024/01/31 07:32:40;;;;;;;5.15;3.45;;;10.10;99.00;;;;;;5012407;28;20108;-45
2024/01/31 07:35:09;;;;;;;5.10;3.40;;;10.10;99.00;;;;;;5011328;28;20057;-45
2024/01/31 07:37:36;;;;;;;6.30;3.60;;;10.10;99.00;;;;;;5010821;28;20100;-44
2024/01/31 07:40:04;;;;;;;6.88;3.83;;;10.20;99.10;;;;;;5011581;28;20384;-45
2024/01/31 07:42:29;;;;;;;5.32;3.50;;;10.20;99.10;;;;;;5014506;28;20045;-45
2024/01/31 07:44:55;;;;;;;5.15;3.58;;;10.20;99.10;;;;;;5015135;28;20041;-45
2024/01/31 07:47:21;;;;;;;5.78;3.88;;;10.20;99.10;;;;;;5014789;28;20108;-45
2024/01/31 07:49:46;;;;;;;6.03;3.70;;;10.20;99.10;;;;;;5015115;28;20061;-45
2024/01/31 07:52:12;;;;;;;5.82;3.60;;;10.30;99.10;;;;;;5016295;28;20029;-43
2024/01/31 07:54:37;;;;;;;5.00;3.15;;;10.30;99.10;;;;;;5015387;28;20419;-40
2024/01/31 07:57:03;;;;;;;6.68;4.00;;;10.40;99.10;;;;;;5014211;28;20040;-44
2024/01/31 07:59:29;;;;;;;6.60;3.35;;;10.40;99.10;;;;;;5015304;28;20026;-45
2024/01/31 08:01:54;;;;;;;5.95;3.45;;;10.40;99.00;;;;;;5014843;28;20068;-45
2024/01/31 08:04:20;;;;;;;5.03;3.60;;;10.50;99.00;;;;;;5015241;28;20030;-45
2024/01/31 08:06:47;;;;;;;5.78;3.08;;;10.50;98.90;;;;;;5014541;28;20088;-45
2024/01/31 08:09:15;;;;;;;4.82;3.47;;;10.60;98.90;;;;;;5014830;28;20506;-44
2024/01/31 08:11:44;;;;;;;4.55;3.10;;;10.60;98.80;;;;;;5015304;28;20488;-45
2024/01/31 08:14:10;;;;;;;7.05;3.95;;;10.70;98.70;;;;;;5014749;28;20106;-45
2024/01/31 08:16:36;;;;;;;4.55;3.03;;;10.70;98.60;;;;;;5015037;28;20022;-45
2024/01/31 08:19:02;;;;;;;4.63;3.38;;;10.80;98.60;;;;;;5014912;28;20029;-42
2024/01/31 08:21:30;;;;;;;4.38;2.95;;;10.90;98.50;;;;;;5014130;28;20033;-42
2024/01/31 08:23:55;;;;;;;5.00;3.17;;;10.90;98.40;;;;;;5013751;28;20438;-44
2024/01/31 08:26:22;;;;;;;5.70;3.30;;;11.00;98.30;;;;;;5013836;28;20029;-45
2024/01/31 08:28:48;;;;;;;4.07;3.17;;;11.00;98.20;;;;;;5014033;28;20437;-45
2024/01/31 08:31:13;;;;;;;4.70;3.42;;;11.10;98.20;;;;;;5013783;28;20062;-43
2024/01/31 08:33:39;;;;;;;4.55;2.95;;;11.10;98.10;;;;;;5013715;28;20392;-45
2024/01/31 08:36:05;;;;;;;4.63;3.15;;;11.20;98.00;;;;;;5013632;28;20388;-45
2024/01/31 08:38:30;;;;;;;4.65;3.05;;;11.20;97.90;;;;;;5013778;28;20026;-43
2024/01/31 08:40:56;;;;;;;4.97;3.08;;;11.30;97.90;;;;;;5014544;28;20511;-45
2024/01/31 08:43:21;;;;;;;4.65;3.20;;;11.30;97.80;;;;;;5013124;28;20472;-44
2024/01/31 08:45:47;;;;;;;4.40;3.45;;;11.40;97.70;;;;;;5013786;28;20436;-44
2024/01/31 08:48:13;;;;;;;4.38;3.00;;;11.40;97.60;;;;;;5014575;28;20034;-41
2024/01/31 08:50:38;;;;;;;3.85;2.85;;;11.40;97.60;;;;;;5013301;28;20347;-42
2024/01/31 08:53:04;;;;;;;4.97;2.85;;;11.40;97.50;;;;;;5014047;28;20030;-45
2024/01/31 08:55:29;;;;;;;4.25;2.95;;;11.50;97.40;;;;;;5013002;28;20473;-45
2024/01/31 08:57:55;;;;;;;6.18;4.15;;;11.60;97.40;;;;;;5012932;28;20036;-46
2024/01/31 09:00:21;;;;;;;8.77;5.43;;;11.60;97.30;;;;;;5013031;28;20030;-46
2024/01/31 09:02:47;;;;;;;9.95;6.20;;;11.60;97.40;;;;;;5013001;28;20026;-45
2024/01/31 09:05:12;;;;;;;8.45;5.70;;;11.70;97.50;;;;;;5013297;28;20105;-44
2024/01/31 09:07:38;;;;;;;7.45;5.47;;;11.70;97.40;;;;;;5012755;28;20026;-45
2024/01/31 09:10:04;;;;;;;8.85;5.80;;;11.80;97.80;;;;;;5012847;28;20062;-44
2024/01/31 09:12:30;;;;;;;11.02;6.20;;;11.80;97.40;;;;;;5013104;28;20029;-46
2024/01/31 09:14:56;;;;;;;8.82;6.55;;;11.80;97.30;;;;;;5012720;28;20024;-44
2024/01/31 09:17:22;;;;;;;10.30;5.88;;;11.90;97.20;;;;;;5013065;28;20018;-46
2024/01/31 09:19:48;;;;;;;9.27;6.07;;;11.90;97.20;;;;;;5013069;28;20091;-44
2024/01/31 09:22:13;;;;;;;8.45;5.50;;;12.00;97.10;;;;;;5013185;28;20076;-46
2024/01/31 09:24:39;;;;;;;7.53;5.70;;;12.10;97.10;;;;;;5013555;28;20064;-44
2024/01/31 09:27:06;;;;;;;9.82;5.85;;;12.10;97.00;;;;;;5013467;28;20026;-45
2024/01/31 09:29:31;;;;;;;8.13;5.75;;;12.20;96.90;;;;;;5014366;28;20057;-45
2024/01/31 09:31:59;;;;;;;10.00;5.35;;;12.20;96.80;;;;;;5012970;28;20108;-46
2024/01/31 09:34:25;;;;;;;8.05;5.72;;;12.30;96.80;;;;;;5012997;28;20030;-45
2024/01/31 09:36:50;;;;;;;8.25;5.57;;;12.30;96.70;;;;;;5013082;28;20018;-45
2024/01/31 09:39:16;;;;;;;8.02;5.85;;;12.40;96.60;;;;;;5013506;28;20341;-45
2024/01/31 09:41:42;;;;;;;7.85;5.07;;;12.40;96.60;;;;;;5012937;28;20037;-44
2024/01/31 09:44:09;;;;;;;8.20;5.70;;;12.50;96.50;;;;;;5013066;28;20109;-45
2024/01/31 09:46:35;;;;;;;9.32;5.53;;;12.60;96.40;;;;;;5012048;28;20026;-46
2024/01/31 09:49:01;;;;;;;8.38;5.13;;;12.60;96.30;;;;;;5013789;28;20030;-46
2024/01/31 09:51:27;;;;;;;9.23;6.13;;;12.60;96.30;;;;;;5012297;28;20026;-45
2024/01/31 09:54:00;;;;;;;7.45;4.95;;;12.70;96.20;;;;;;5012916;28;20421;-46
2024/01/31 09:56:31;;;;;;;6.78;4.90;;;12.70;96.10;;;;;;5013759;28;20427;-45
2024/01/31 09:58:58;;;;;;;7.45;5.03;;;12.80;96.10;;;;;;5012885;28;20068;-46
2024/01/31 10:01:26;;;;;;;6.65;4.82;;;12.80;96.00;;;;;;5012697;28;20392;-45
2024/01/31 10:03:52;;;;;;;8.48;5.35;;;12.90;95.90;;;;;;5011296;28;20151;-46
2024/01/31 10:06:19;;;;;;;9.02;4.70;;;12.90;95.80;;;;;;5012432;28;20512;-46
2024/01/31 10:08:46;;;;;;;8.73;5.47;;;12.90;95.80;;;;;;5011819;28;20057;-44
2024/01/31 10:11:12;;;;;;;6.97;4.57;;;13.00;95.70;;;;;;5012236;28;20055;-45
2024/01/31 10:13:38;;;;;;;7.88;5.25;;;13.00;95.60;;;;;;5013333;28;20022;-45
2024/01/31 10:16:04;;;;;;;7.90;4.60;;;13.10;95.60;;;;;;5012423;28;20030;-46
2024/01/31 10:18:30;;;;;;;6.60;4.88;;;13.10;95.50;;;;;;5012905;28;20483;-44
2024/01/31 10:20:57;;;;;;;6.97;4.78;;;13.20;95.40;;;;;;5011659;28;20113;-46
2024/01/31 10:23:23;;;;;;;6.63;4.72;;;13.20;95.40;;;;;;5011489;28;20400;-46
2024/01/31 10:25:50;;;;;;;6.78;5.20;;;13.30;95.30;;;;;;5011574;28;20045;-46
2024/01/31 10:28:19;;;;;;;5.68;4.55;;;13.30;95.20;;;;;;5011535;28;20037;-45
2024/01/31 10:30:48;;;;;;;7.65;4.60;;;13.40;95.20;;;;;;5012373;28;20030;-46
2024/01/31 10:33:15;;;;;;;7.30;4.55;;;13.40;95.10;;;;;;5011547;28;20030;-46
2024/01/31 10:35:43;;;;;;;9.73;5.15;;;13.40;95.10;;;;;;5011735;28;20358;-45
2024/01/31 10:38:12;;;;;;;6.68;4.70;;;13.50;95.00;;;;;;5012168;28;20435;-46
2024/01/31 10:40:40;;;;;;;7.32;4.88;;;13.50;94.90;;;;;;5011622;28;20436;-46
2024/01/31 10:43:09;;;;;;;6.20;4.55;;;13.50;94.90;;;;;;5011702;28;20022;-44
2024/01/31 10:45:35;;;;;;;6.93;4.90;;;13.60;94.80;;;;;;5011714;28;20030;-46
2024/01/31 10:48:04;;;;;;;6.10;4.35;;;13.60;94.80;;;;;;5011464;28;20045;-46
2024/01/31 10:50:30;;;;;;;6.97;4.88;;;13.60;94.70;;;;;;5011122;28;20025;-45
2024/01/31 10:52:58;;;;;;;5.78;4.22;;;13.70;94.70;;;;;;5011422;28;20092;-46
2024/01/31 10:55:23;;;;;;;6.78;4.80;;;13.70;94.70;;;;;;5011252;28;20076;-46
2024/01/31 10:57:49;;;;;;;6.47;4.25;;;13.80;94.60;;;;;;5012743;28;20384;-45
2024/01/31 11:00:28;;;;;;;6.28;4.57;;;13.80;94.60;;;;;;5011236;28;20060;-46
2024/01/31 11:02:55;;;;;;;6.50;4.38;;;13.80;94.50;;;;;;5011315;28;20100;-44
2024/01/31 11:05:21;;;;;;;6.68;3.85;;;13.90;94.40;;;;;;5011548;28;20053;-45
2024/01/31 11:07:46;;;;;;;5.88;4.10;;;13.90;94.40;;;;;;5012319;28;20505;-47
2024/01/31 11:10:21;;;;;;;7.15;4.60;;;13.90;94.30;;;;;;5012609;28;20026;-45
2024/01/31 11:13:03;;;;;;;7.10;4.50;;;14.00;94.30;;;;;;5012076;28;20088;-46
2024/01/31 11:15:34;;;;;;;6.68;4.80;;;14.00;94.20;;;;;;5013449;28;20110;-46
2024/01/31 11:18:14;;;;;;;5.05;4.18;;;14.00;94.10;;;;;;5015794;28;20028;-45
2024/01/31 11:20:46;;;;;;;6.28;4.50;;;14.10;94.10;;;;;;5015483;28;20064;-46
2024/01/31 11:23:23;;;;;;;5.03;4.00;;;14.10;94.10;;;;;;5014861;28;20376;-44
2024/01/31 11:25:50;;;;;;;7.28;3.97;;;14.20;94.00;;;;;;5014718;28;20041;-45
2024/01/31 11:28:17;;;;;;;9.65;4.60;;;14.10;94.00;;;;;;5015765;28;20061;-44
2024/01/31 11:30:50;;;;;;;9.05;4.65;;;14.20;94.00;;;;;;5015043;28;20034;-46
2024/01/31 11:33:16;;;;;;;5.82;4.40;;;14.20;93.90;;;;;;5014674;28;20014;-46
2024/01/31 11:35:41;;;;;;;8.73;4.18;;;14.30;93.90;;;;;;5014442;28;20022;-45
2024/01/31 11:38:08;;;;;;;7.05;4.35;;;14.30;93.90;;;;;;5014539;28;20033;-46
2024/01/31 11:40:34;;;;;;;6.95;4.25;;;14.30;93.90;;;;;;5014693;28;20032;-46
2024/01/31 11:43:01;;;;;;;6.13;4.40;;;14.30;93.90;;;;;;5014881;28;20484;-46
2024/01/31 11:45:27;;;;;;;6.88;4.38;;;14.40;93.80;;;;;;5015280;28;20105;-46
2024/01/31 11:47:57;;;;;;;11.10;4.60;;;14.40;93.80;;;;;;5015781;28;20057;-46
2024/01/31 11:50:24;;;;;;;7.88;4.55;;;14.50;93.80;;;;;;5014584;28;20018;-44
2024/01/31 11:52:50;;;;;;;7.05;4.50;;;14.40;93.70;;;;;;5014505;28;20096;-46
2024/01/31 11:55:23;;;;;;;7.93;4.15;;;14.50;93.70;;;;;;5014309;28;20021;-44
2024/01/31 11:57:50;;;;;;;6.70;4.07;;;14.50;93.60;;;;;;5015096;28;20029;-46
2024/01/31 12:00:16;;;;;;;6.72;4.30;;;14.50;93.60;;;;;;5014872;28;20391;-46
2024/01/31 12:02:43;;;;;;;7.53;4.03;;;14.60;93.60;;;;;;5014487;28;20487;-46
2024/01/31 12:05:10;;;;;;;5.80;4.13;;;14.60;93.60;;;;;;5014002;28;20018;-46
2024/01/31 12:07:36;;;;;;;5.65;3.97;;;14.70;93.60;;;;;;5014707;28;20317;-46
2024/01/31 12:10:03;;;;;;;7.35;3.50;;;14.70;93.50;;;;;;5014804;28;20022;-45
2024/01/31 12:12:30;;;;;;;6.43;4.22;;;14.80;93.50;;;;;;5015804;28;20388;-45
2024/01/31 12:14:56;;;;;;;6.57;3.88;;;14.90;93.40;;;;;;5014036;28;20013;-44
2024/01/31 12:17:26;;;;;;;5.10;3.95;;;15.00;93.30;;;;;;5013783;28;20021;-44
2024/01/31 12:20:06;;;;;;;6.40;3.55;;;15.00;93.20;;;;;;5014277;28;20030;-46
2024/01/31 12:22:32;;;;;;;5.20;4.00;;;15.10;93.10;;;;;;5014097;28;20030;-44
2024/01/31 12:25:00;;;;;;;5.93;3.35;;;15.10;93.10;;;;;;5015458;28;20439;-46
2024/01/31 12:27:26;;;;;;;5.55;3.85;;;15.20;93.00;;;;;;5014732;28;20661;-46
2024/01/31 12:29:52;;;;;;;5.30;3.78;;;15.30;92.90;;;;;;5014899;28;20679;-46
2024/01/31 12:32:18;;;;;;;4.78;3.25;;;15.30;92.90;;;;;;5013924;28;20022;-46
2024/01/31 12:34:43;;;;;;;7.18;3.47;;;15.40;92.80;;;;;;5013620;28;20032;-46
2024/01/31 12:37:09;;;;;;;7.20;3.65;;;15.40;92.70;;;;;;5014050;28;20420;-45
2024/01/31 12:39:35;;;;;;;5.95;3.42;;;15.50;92.70;;;;;;5014492;28;20064;-46
2024/01/31 12:42:03;;;;;;;5.10;3.80;;;15.50;92.70;;;;;;5013771;28;20499;-46